JA6083 RJTI-RJTI
Flight info
| Callsign | JA6083 |
|---|---|
| Flight time | N/A |
| Altitude | 2000 |
| Route | MYOKEN MISATO KOMATSUGAWA |
| Aircraft | AS50/L-SDGLOV/S |
Departure
| Time | 2026-04-13 14:53 |
|---|---|
| Airport | Tokyo Heliport (RJTI) |
Arrival
| Time | N/A |
|---|---|
| Airport | Tokyo Heliport (RJTI) |
| Time | Latitude | Longitude | Altitude | Speed | Heading |
|---|---|---|---|---|---|
| 2026-04-13 14:43 | 35.63432 | 139.83751 | 21 ft | 0 kts | 92° |
| 2026-04-13 14:49 | 35.63433 | 139.83751 | 25 ft | 0 kts | 94° |
| 2026-04-13 14:49 | 35.63441 | 139.83771 | 29 ft | 5 kts | 21° |
| 2026-04-13 14:50 | 35.63458 | 139.83774 | 31 ft | 4 kts | 12° |
| 2026-04-13 14:50 | 35.63495 | 139.83779 | 29 ft | 5 kts | 62° |
| 2026-04-13 14:50 | 35.63506 | 139.83817 | 25 ft | 1 kts | 63° |
| 2026-04-13 14:50 | 35.63512 | 139.83826 | 23 ft | 1 kts | 5° |
| 2026-04-13 14:51 | 35.63528 | 139.83827 | 25 ft | 5 kts | 12° |
| 2026-04-13 14:51 | 35.63586 | 139.83835 | 26 ft | 10 kts | 17° |
| 2026-04-13 14:51 | 35.63633 | 139.83858 | 41 ft | 9 kts | 89° |
| 2026-04-13 14:51 | 35.63628 | 139.83919 | 37 ft | 10 kts | 102° |
| 2026-04-13 14:52 | 35.63616 | 139.83949 | 43 ft | 1 kts | 185° |
| 2026-04-13 14:52 | 35.63492 | 139.83946 | 99 ft | 52 kts | 187° |
| 2026-04-13 14:52 | 35.63327 | 139.84363 | 200 ft | 74 kts | 84° |
| 2026-04-13 14:52 | 35.63407 | 139.84975 | 374 ft | 76 kts | 87° |
| 2026-04-13 14:53 | 35.63446 | 139.85512 | 664 ft | 50 kts | 95° |
| 2026-04-13 14:53 | 35.63494 | 139.86001 | 727 ft | 64 kts | 88° |
| 2026-04-13 14:53 | 35.63609 | 139.86576 | 789 ft | 74 kts | 83° |
| 2026-04-13 14:53 | 35.63824 | 139.87192 | 728 ft | 81 kts | 66° |
| 2026-04-13 14:54 | 35.64113 | 139.87774 | 569 ft | 81 kts | 64° |
| 2026-04-13 14:54 | 35.64483 | 139.88276 | 457 ft | 80 kts | 39° |
| 2026-04-13 14:54 | 35.64996 | 139.88536 | 382 ft | 79 kts | 23° |
| 2026-04-13 14:54 | 35.65520 | 139.88699 | 368 ft | 74 kts | 14° |
| 2026-04-13 14:55 | 35.66034 | 139.88715 | 340 ft | 78 kts | 2° |
| 2026-04-13 14:55 | 35.66585 | 139.88664 | 329 ft | 82 kts | 356° |
| 2026-04-13 14:55 | 35.67166 | 139.88578 | 319 ft | 86 kts | 2° |
| 2026-04-13 14:55 | 35.67783 | 139.88601 | 329 ft | 92 kts | 7° |
| 2026-04-13 14:56 | 35.68459 | 139.88624 | 315 ft | 101 kts | 2° |
| 2026-04-13 14:56 | 35.69130 | 139.88589 | 438 ft | 94 kts | 356° |
| 2026-04-13 14:56 | 35.69783 | 139.88557 | 510 ft | 94 kts | 358° |
| 2026-04-13 14:56 | 35.70434 | 139.88475 | 564 ft | 96 kts | 355° |
| 2026-04-13 14:57 | 35.71113 | 139.88327 | 575 ft | 99 kts | 352° |
| 2026-04-13 14:57 | 35.71770 | 139.88113 | 630 ft | 98 kts | 346° |
| 2026-04-13 14:57 | 35.72396 | 139.87848 | 740 ft | 93 kts | 335° |
| 2026-04-13 14:58 | 35.73493 | 139.87092 | 911 ft | 87 kts | 330° |
| 2026-04-13 14:58 | 35.74018 | 139.86728 | 997 ft | 86 kts | 331° |
| 2026-04-13 14:58 | 35.74576 | 139.86414 | 951 ft | 91 kts | 338° |
| 2026-04-13 14:58 | 35.75160 | 139.86129 | 955 ft | 88 kts | 343° |
| 2026-04-13 14:59 | 35.75728 | 139.85789 | 945 ft | 94 kts | 321° |
| 2026-04-13 14:59 | 35.76329 | 139.85649 | 848 ft | 97 kts | 38° |
| 2026-04-13 14:59 | 35.76943 | 139.85784 | 908 ft | 89 kts | 340° |
| 2026-04-13 14:59 | 35.77467 | 139.85438 | 1017 ft | 82 kts | 329° |
| 2026-04-13 15:00 | 35.77918 | 139.85073 | 1116 ft | 81 kts | 327° |
| 2026-04-13 15:00 | 35.78441 | 139.84783 | 1180 ft | 80 kts | 339° |
| 2026-04-13 15:00 | 35.78903 | 139.84594 | 1364 ft | 68 kts | 339° |
| 2026-04-13 15:00 | 35.79419 | 139.84590 | 1337 ft | 83 kts | 31° |
| 2026-04-13 15:01 | 35.79891 | 139.85062 | 1295 ft | 84 kts | 44° |
| 2026-04-13 15:01 | 35.80247 | 139.85488 | 1493 ft | 61 kts | 51° |
| 2026-04-13 15:01 | 35.80540 | 139.85821 | 1537 ft | 63 kts | 58° |
| 2026-04-13 15:01 | 35.80867 | 139.86246 | 1440 ft | 76 kts | 56° |
| 2026-04-13 15:02 | 35.81303 | 139.86728 | 1207 ft | 97 kts | 31° |
| 2026-04-13 15:02 | 35.81985 | 139.86855 | 1019 ft | 98 kts | 342° |
| 2026-04-13 15:02 | 35.82324 | 139.86243 | 939 ft | 87 kts | 272° |
| 2026-04-13 15:02 | 35.82408 | 139.85559 | 860 ft | 81 kts | 284° |
| 2026-04-13 15:03 | 35.82680 | 139.85054 | 768 ft | 77 kts | 359° |
| 2026-04-13 15:03 | 35.83131 | 139.85176 | 796 ft | 58 kts | 23° |
| 2026-04-13 15:03 | 35.83444 | 139.85360 | 778 ft | 49 kts | 37° |
| 2026-04-13 15:03 | 35.83701 | 139.85704 | 765 ft | 61 kts | 60° |
| 2026-04-13 15:04 | 35.83836 | 139.86075 | 817 ft | 39 kts | 74° |
| 2026-04-13 15:04 | 35.83863 | 139.86413 | 654 ft | 39 kts | 92° |
| 2026-04-13 15:04 | 35.83835 | 139.86714 | 474 ft | 32 kts | 97° |
| 2026-04-13 15:04 | 35.83809 | 139.86940 | 295 ft | 21 kts | 92° |
| 2026-04-13 15:05 | 35.83798 | 139.87094 | 163 ft | 16 kts | 88° |
| 2026-04-13 15:05 | 35.83781 | 139.87206 | 37 ft | 7 kts | 99° |
| 2026-04-13 15:05 | 35.83778 | 139.87222 | 9 ft | 0 kts | 170° |
| 2026-04-13 15:05 | 35.83776 | 139.87216 | 18 ft | 1 kts | 165° |
| 2026-04-13 15:06 | 35.83775 | 139.87209 | 12 ft | 0 kts | 159° |
| 2026-04-13 15:06 | 35.83776 | 139.87207 | 7 ft | 0 kts | 159° |